createdAt,value
2019-02-06T00:00:04.235Z,99.77
2019-02-06T00:01:04.208Z,99.77
2019-02-06T00:02:04.182Z,99.58
2019-02-06T00:03:04.154Z,99.48
2019-02-06T00:04:04.126Z,99.58
2019-02-06T00:05:13.814Z,99.86
2019-02-06T00:06:04.072Z,99.48
2019-02-06T00:07:04.061Z,99.58
2019-02-06T00:08:04.020Z,99.58
2019-02-06T00:09:03.993Z,99.58
2019-02-06T00:10:03.964Z,99.39
2019-02-06T00:11:03.939Z,99.48
2019-02-06T00:12:03.914Z,99.39
2019-02-06T00:13:03.889Z,99.77
2019-02-06T00:14:03.882Z,99.39
2019-02-06T00:15:03.851Z,99.58
2019-02-06T00:16:03.816Z,99.67
2019-02-06T00:17:03.798Z,99.67
2019-02-06T00:18:03.786Z,99.58
2019-02-06T00:19:03.747Z,99.86
2019-02-06T00:20:03.696Z,99.58
2019-02-06T00:21:03.669Z,99.58
2019-02-06T00:22:03.641Z,99.58
2019-02-06T00:23:03.612Z,99.58
2019-02-06T00:24:03.593Z,99.86
2019-02-06T00:25:03.562Z,99.10
2019-02-06T00:26:03.532Z,99.58
2019-02-06T00:27:03.503Z,99.58
2019-02-06T00:28:03.478Z,98.86
2019-02-06T00:29:03.450Z,99.15
2019-02-06T00:30:03.425Z,99.10
2019-02-06T00:31:03.395Z,98.82
2019-02-06T00:32:03.368Z,99.05
2019-02-06T00:33:03.343Z,98.63
2019-02-06T00:34:03.316Z,98.72
2019-02-06T00:35:03.291Z,99.20
2019-02-06T00:36:03.261Z,99.15
2019-02-06T00:37:03.236Z,98.49
2019-02-06T00:38:05.426Z,99.24
2019-02-06T00:39:03.177Z,98.96
2019-02-06T00:40:03.153Z,99.33
2019-02-06T00:41:03.130Z,98.86
2019-02-06T00:42:03.111Z,98.96
2019-02-06T00:43:03.070Z,98.86
2019-02-06T00:44:03.046Z,99.05
2019-02-06T00:45:03.016Z,98.77
2019-02-06T00:46:02.990Z,98.58
2019-02-06T00:47:02.966Z,98.77
2019-02-06T00:48:02.938Z,98.86
2019-02-06T00:49:02.907Z,98.39
2019-02-06T00:50:02.893Z,98.58
2019-02-06T00:51:02.859Z,98.68
2019-02-06T00:52:02.824Z,98.68
2019-02-06T00:53:02.798Z,98.58
2019-02-06T00:54:02.770Z,98.49
2019-02-06T00:55:02.746Z,98.49
2019-02-06T00:56:02.718Z,98.49
2019-02-06T00:57:02.690Z,98.39
2019-02-06T00:58:02.664Z,98.68
2019-02-06T00:59:02.634Z,98.39
2019-02-06T01:00:02.608Z,98.58
2019-02-06T01:01:02.586Z,99.24
2019-02-06T01:02:02.570Z,98.68
2019-02-06T01:03:02.527Z,98.49
2019-02-06T01:04:02.500Z,98.77
2019-02-06T01:05:02.502Z,98.68
2019-02-06T01:06:02.447Z,98.30
2019-02-06T01:07:02.430Z,98.39
2019-02-06T01:08:02.389Z,98.39
2019-02-06T01:09:02.363Z,98.39
2019-02-06T01:10:02.337Z,98.58
2019-02-06T01:11:02.308Z,98.39
2019-02-06T01:12:02.279Z,98.20
2019-02-06T01:13:02.252Z,97.73
2019-02-06T01:14:02.225Z,97.73
2019-02-06T01:15:02.197Z,97.73
2019-02-06T01:16:02.171Z,97.92
2019-02-06T01:17:02.144Z,97.82
2019-02-06T01:18:02.169Z,97.82
2019-02-06T01:19:02.089Z,98.01
2019-02-06T01:20:02.064Z,97.44
2019-02-06T01:21:02.035Z,97.82
2019-02-06T01:22:02.007Z,97.82
2019-02-06T01:23:01.979Z,98.20
2019-02-06T01:24:01.956Z,98.30
2019-02-06T01:25:01.926Z,98.96
2019-02-06T01:26:01.898Z,98.39
2019-02-06T01:27:01.873Z,98.49
2019-02-06T01:28:01.848Z,98.68
2019-02-06T01:29:01.818Z,98.86
2019-02-06T01:30:01.789Z,98.86
2019-02-06T01:31:01.762Z,98.58
2019-02-06T01:32:01.735Z,98.68
2019-02-06T01:33:01.707Z,98.39
2019-02-06T01:34:01.679Z,98.68
2019-02-06T01:35:01.653Z,98.49
2019-02-06T01:36:01.627Z,98.68
2019-02-06T01:37:01.601Z,98.68
2019-02-06T01:38:01.575Z,98.68
2019-02-06T01:39:01.551Z,98.39
2019-02-06T01:40:01.518Z,98.20
2019-02-06T01:41:01.490Z,98.39
2019-02-06T01:42:01.463Z,98.58
2019-02-06T01:43:01.438Z,98.58
2019-02-06T01:44:01.408Z,98.68
2019-02-06T01:45:01.381Z,98.96
2019-02-06T01:46:01.352Z,98.58
2019-02-06T01:47:01.355Z,98.68
2019-02-06T01:48:01.310Z,98.58
2019-02-06T01:49:01.273Z,98.58
2019-02-06T01:50:01.246Z,98.68
2019-02-06T01:51:01.219Z,98.49
2019-02-06T01:52:01.188Z,98.77
2019-02-06T01:53:01.165Z,98.96
2019-02-06T01:54:01.141Z,98.86
2019-02-06T01:55:01.109Z,98.39
2019-02-06T01:56:01.080Z,98.58
2019-02-06T01:57:01.057Z,98.86
2019-02-06T01:58:01.024Z,98.68
2019-02-06T01:59:00.998Z,98.77
2019-02-06T02:00:00.973Z,98.96
2019-02-06T02:01:00.945Z,98.77
2019-02-06T02:02:00.914Z,98.77
2019-02-06T02:03:00.887Z,98.58
2019-02-06T02:04:00.861Z,98.86
2019-02-06T02:05:00.834Z,98.77
2019-02-06T02:06:02.670Z,98.39
2019-02-06T02:07:00.779Z,98.49
2019-02-06T02:08:00.753Z,98.11
2019-02-06T02:09:00.724Z,97.73
2019-02-06T02:10:00.693Z,97.63
2019-02-06T02:11:00.668Z,98.01
2019-02-06T02:12:00.641Z,97.92
2019-02-06T02:13:00.614Z,97.44
2019-02-06T02:14:00.586Z,97.73
2019-02-06T02:15:00.566Z,97.82
2019-02-06T02:16:00.531Z,98.01
2019-02-06T02:17:00.504Z,98.39
2019-02-06T02:18:00.503Z,98.11
2019-02-06T02:19:00.449Z,98.49
2019-02-06T02:20:00.421Z,98.49
2019-02-06T02:21:00.393Z,98.39
2019-02-06T02:22:00.366Z,98.58
2019-02-06T02:23:00.338Z,98.39
2019-02-06T02:24:00.311Z,98.68
2019-02-06T02:25:00.360Z,98.58
2019-02-06T02:26:00.256Z,98.49
2019-02-06T02:27:00.231Z,98.49
2019-02-06T02:28:00.201Z,98.68
2019-02-06T02:29:00.174Z,98.58
2019-02-06T02:30:00.218Z,98.58
2019-02-06T02:31:00.118Z,98.58
2019-02-06T02:32:00.095Z,98.77
2019-02-06T02:33:00.067Z,98.39
2019-02-06T02:34:00.037Z,98.20
2019-02-06T02:35:00.008Z,98.39
2019-02-06T02:35:59.983Z,98.39
2019-02-06T02:36:59.954Z,98.20
2019-02-06T02:37:59.934Z,98.20
2019-02-06T02:38:59.898Z,98.20
2019-02-06T02:39:59.872Z,98.30
2019-02-06T02:40:59.860Z,97.44
2019-02-06T02:41:59.818Z,98.01
2019-02-06T02:42:59.789Z,97.92
2019-02-06T02:43:59.761Z,97.82
2019-02-06T02:44:59.733Z,97.63
2019-02-06T02:45:59.713Z,97.73
2019-02-06T02:46:59.681Z,97.92
2019-02-06T02:47:59.654Z,97.73
2019-02-06T02:48:59.625Z,97.82
2019-02-06T02:49:59.610Z,97.92
2019-02-06T02:50:59.571Z,97.82
2019-02-06T02:51:59.543Z,97.63
2019-02-06T02:52:59.514Z,97.92
2019-02-06T02:53:59.487Z,97.63
2019-02-06T02:54:59.462Z,98.20
2019-02-06T02:55:59.431Z,98.01
2019-02-06T02:56:59.406Z,98.49
2019-02-06T02:57:59.378Z,98.39
2019-02-06T02:58:59.353Z,98.20
2019-02-06T02:59:59.322Z,98.68
2019-02-06T03:00:59.298Z,98.58
2019-02-06T03:01:59.265Z,98.68
2019-02-06T03:02:59.238Z,98.58
2019-02-06T03:03:59.212Z,98.49
2019-02-06T03:04:59.192Z,98.49
2019-02-06T03:05:59.158Z,98.68
2019-02-06T03:06:59.159Z,98.68
2019-02-06T03:07:59.103Z,98.86
2019-02-06T03:08:59.079Z,98.77
2019-02-06T03:09:59.052Z,98.77
2019-02-06T03:10:59.024Z,98.96
2019-02-06T03:11:58.994Z,98.68
2019-02-06T03:12:58.969Z,98.77
2019-02-06T03:13:58.944Z,98.39
2019-02-06T03:14:58.910Z,98.58
2019-02-06T03:15:58.885Z,98.68
2019-02-06T03:16:58.864Z,98.68
2019-02-06T03:17:58.826Z,98.49
2019-02-06T03:18:58.801Z,98.58
2019-02-06T03:19:58.772Z,98.86
2019-02-06T03:20:58.746Z,98.77
2019-02-06T03:21:58.717Z,98.77
2019-02-06T03:22:58.690Z,98.96
2019-02-06T03:23:58.699Z,98.68
2019-02-06T03:24:58.634Z,98.58
2019-02-06T03:25:58.608Z,98.58
2019-02-06T03:26:58.582Z,98.58
2019-02-06T03:27:58.554Z,98.39
2019-02-06T03:28:58.533Z,98.96
2019-02-06T03:29:58.516Z,98.58
2019-02-06T03:30:58.470Z,98.39
2019-02-06T03:31:58.490Z,98.39
2019-02-06T03:32:58.419Z,98.39
2019-02-06T03:33:58.386Z,99.05
2019-02-06T03:34:58.360Z,98.77
2019-02-06T03:35:58.330Z,98.96
2019-02-06T03:36:58.304Z,98.77
2019-02-06T03:37:58.287Z,98.77
2019-02-06T03:38:58.248Z,98.39
2019-02-06T03:39:58.220Z,99.05
2019-02-06T03:40:58.196Z,98.39
2019-02-06T03:41:58.165Z,98.96
2019-02-06T03:42:58.138Z,98.96
2019-02-06T03:43:58.112Z,98.58
2019-02-06T03:44:58.084Z,98.49
2019-02-06T03:45:58.054Z,98.96
2019-02-06T03:46:58.027Z,98.58
2019-02-06T03:47:58.001Z,98.96
2019-02-06T03:48:57.973Z,98.96
2019-02-06T03:49:57.945Z,98.86
2019-02-06T03:50:57.918Z,98.96
2019-02-06T03:51:57.891Z,99.05
2019-02-06T03:52:57.863Z,98.58
2019-02-06T03:53:57.834Z,98.58
2019-02-06T03:54:57.807Z,98.58
2019-02-06T03:55:57.779Z,99.05
2019-02-06T03:56:57.752Z,98.49
2019-02-06T03:57:57.723Z,99.05
2019-02-06T03:58:57.697Z,98.77
2019-02-06T03:59:57.669Z,99.05
2019-02-06T04:00:57.641Z,99.05
2019-02-06T04:01:57.619Z,99.33
2019-02-06T04:02:57.585Z,99.15
2019-02-06T04:03:57.559Z,98.86
2019-02-06T04:04:57.536Z,98.96
2019-02-06T04:05:57.505Z,98.96
2019-02-06T04:07:00.902Z,98.77
2019-02-06T04:07:57.451Z,98.58
2019-02-06T04:08:57.428Z,98.77
2019-02-06T04:09:57.393Z,98.77
2019-02-06T04:10:57.366Z,98.96
2019-02-06T04:11:57.340Z,98.68
2019-02-06T04:12:57.311Z,99.33
2019-02-06T04:13:57.284Z,98.86
2019-02-06T04:14:57.254Z,99.43
2019-02-06T04:15:57.228Z,99.33
2019-02-06T04:16:57.207Z,98.96
2019-02-06T04:17:57.173Z,99.43
2019-02-06T04:18:57.150Z,99.15
2019-02-06T04:19:57.119Z,99.52
2019-02-06T04:20:57.092Z,99.62
2019-02-06T04:21:57.064Z,99.15
2019-02-06T04:22:57.036Z,99.43
2019-02-06T04:23:57.034Z,99.24
2019-02-06T04:24:56.982Z,98.96
2019-02-06T04:25:56.954Z,99.62
2019-02-06T04:26:56.928Z,98.96
2019-02-06T04:27:56.906Z,99.62
2019-02-06T04:28:56.873Z,99.24
2019-02-06T04:29:56.845Z,99.71
2019-02-06T04:30:56.819Z,99.52
2019-02-06T04:31:56.790Z,99.52
2019-02-06T04:32:56.763Z,99.43
2019-02-06T04:33:56.736Z,99.52
2019-02-06T04:34:56.708Z,99.52
2019-02-06T04:35:56.678Z,99.52
2019-02-06T04:37:06.302Z,99.52
2019-02-06T04:37:56.685Z,99.52
2019-02-06T04:38:56.598Z,99.43
2019-02-06T04:39:56.569Z,99.33
2019-02-06T04:40:56.542Z,99.33
2019-02-06T04:41:56.512Z,99.81
2019-02-06T04:42:56.515Z,99.24
2019-02-06T04:43:56.459Z,99.33
2019-02-06T04:44:56.433Z,99.52
2019-02-06T04:45:56.404Z,99.15
2019-02-06T04:46:56.378Z,99.24
2019-02-06T04:47:56.359Z,99.90
2019-02-06T04:48:56.320Z,99.33
2019-02-06T04:49:56.292Z,99.33
2019-02-06T04:50:56.365Z,99.33
2019-02-06T04:51:56.259Z,99.24
2019-02-06T04:52:56.212Z,99.15
2019-02-06T04:53:56.183Z,99.62
2019-02-06T04:54:56.156Z,99.33
2019-02-06T04:55:56.137Z,99.33
2019-02-06T04:56:56.101Z,99.43
2019-02-06T04:57:56.072Z,99.24
2019-02-06T04:58:56.058Z,99.33
2019-02-06T04:59:56.024Z,99.62
2019-02-06T05:00:55.992Z,99.33
2019-02-06T05:01:55.969Z,99.33
2019-02-06T05:02:55.935Z,99.62
2019-02-06T05:03:55.908Z,99.43
2019-02-06T05:04:55.881Z,99.62
2019-02-06T05:05:55.855Z,99.81
2019-02-06T05:06:55.824Z,99.43
2019-02-06T05:07:55.798Z,99.71
2019-02-06T05:08:55.772Z,99.71
2019-02-06T05:09:55.780Z,99.71
2019-02-06T05:10:55.715Z,99.52
2019-02-06T05:11:55.688Z,99.62
2019-02-06T05:12:55.662Z,99.71
2019-02-06T05:13:55.633Z,99.43
2019-02-06T05:14:55.605Z,99.33
2019-02-06T05:15:55.579Z,99.33
2019-02-06T05:16:55.552Z,99.43
2019-02-06T05:17:55.988Z,99.33
2019-02-06T05:18:55.509Z,99.62
2019-02-06T05:19:55.469Z,99.62
2019-02-06T05:20:55.441Z,99.33
2019-02-06T05:21:55.413Z,99.71
2019-02-06T05:22:55.386Z,99.71
2019-02-06T05:23:55.358Z,99.43
2019-02-06T05:24:55.331Z,99.52
2019-02-06T05:25:55.302Z,99.71
2019-02-06T05:26:55.285Z,99.52
2019-02-06T05:27:55.247Z,99.62
2019-02-06T05:28:55.228Z,99.90
2019-02-06T05:29:55.195Z,99.33
2019-02-06T05:30:55.167Z,99.24
2019-02-06T05:31:55.139Z,99.71
2019-02-06T05:32:55.114Z,99.62
2019-02-06T05:33:55.083Z,99.33
2019-02-06T05:34:55.055Z,99.33
2019-02-06T05:35:55.035Z,99.99
2019-02-06T05:36:55.003Z,99.99
2019-02-06T05:37:54.981Z,99.99
2019-02-06T05:38:54.966Z,99.99
2019-02-06T05:39:54.920Z,99.99
2019-02-06T05:40:54.894Z,99.99
2019-02-06T05:41:54.865Z,99.99
2019-02-06T05:42:54.836Z,99.99
2019-02-06T05:43:54.809Z,99.99
2019-02-06T05:44:54.783Z,99.99
2019-02-06T05:45:54.754Z,99.99
2019-02-06T05:46:54.738Z,99.99
2019-02-06T05:47:54.703Z,99.99
2019-02-06T05:48:54.674Z,99.99
2019-02-06T05:49:54.665Z,99.99
2019-02-06T05:50:54.617Z,99.99
2019-02-06T05:51:54.591Z,99.99
2019-02-06T05:52:54.568Z,99.99
2019-02-06T05:53:54.534Z,99.99
2019-02-06T05:54:54.509Z,99.99
2019-02-06T05:55:54.480Z,99.99
2019-02-06T05:56:54.453Z,99.99
2019-02-06T05:57:54.428Z,99.99
2019-02-06T05:58:54.401Z,99.99
2019-02-06T05:59:54.372Z,99.99
2019-02-06T06:00:54.343Z,99.99
2019-02-06T06:01:54.317Z,99.99
2019-02-06T06:02:54.287Z,99.99
2019-02-06T06:03:54.280Z,99.99
2019-02-06T06:04:54.234Z,99.99
2019-02-06T06:05:54.214Z,99.99
2019-02-06T06:06:54.213Z,99.99
2019-02-06T06:07:54.151Z,99.99
2019-02-06T06:08:54.123Z,99.99
2019-02-06T06:09:54.097Z,99.99
2019-02-06T06:10:54.069Z,99.99
2019-02-06T06:11:54.042Z,99.99
2019-02-06T06:12:54.014Z,99.99
2019-02-06T06:13:54.024Z,99.99
2019-02-06T06:14:53.959Z,99.99
2019-02-06T06:15:53.931Z,99.99
2019-02-06T06:16:53.905Z,99.99
2019-02-06T06:17:53.876Z,99.99
2019-02-06T06:18:53.849Z,99.99
2019-02-06T06:19:53.839Z,99.99
2019-02-06T06:20:53.794Z,99.99
2019-02-06T06:21:53.768Z,99.99
2019-02-06T06:22:53.775Z,99.99
2019-02-06T06:23:53.712Z,99.99
2019-02-06T06:24:53.685Z,99.99
2019-02-06T06:25:53.672Z,99.99
2019-02-06T06:26:53.631Z,99.99
2019-02-06T06:27:53.606Z,99.99
2019-02-06T06:28:53.576Z,99.99
2019-02-06T06:29:53.549Z,99.99
2019-02-06T06:30:53.529Z,99.99
2019-02-06T06:31:53.496Z,99.99
2019-02-06T06:32:53.466Z,99.99
2019-02-06T06:33:53.437Z,99.99
2019-02-06T06:34:53.413Z,99.99
2019-02-06T06:35:53.383Z,99.99
2019-02-06T06:36:56.639Z,99.99
2019-02-06T06:38:00.232Z,99.99
2019-02-06T06:38:53.306Z,99.99
2019-02-06T06:39:53.275Z,99.99
2019-02-06T06:40:53.255Z,99.99
2019-02-06T06:41:53.224Z,99.99
2019-02-06T06:42:53.193Z,99.99
2019-02-06T06:43:53.167Z,99.99
2019-02-06T06:44:53.139Z,99.99
2019-02-06T06:45:53.144Z,99.99
2019-02-06T06:46:53.086Z,99.99
2019-02-06T06:47:53.066Z,99.99
2019-02-06T06:48:53.032Z,99.99
2019-02-06T06:49:53.002Z,99.99
2019-02-06T06:50:52.975Z,99.99
2019-02-06T06:51:52.947Z,99.99
2019-02-06T06:52:52.920Z,99.99
2019-02-06T06:53:52.892Z,99.99
2019-02-06T06:54:52.864Z,99.99
2019-02-06T06:55:52.838Z,99.99
2019-02-06T06:56:52.811Z,99.99
2019-02-06T06:57:52.784Z,99.99
2019-02-06T06:58:52.756Z,99.99
2019-02-06T06:59:55.504Z,99.99
2019-02-06T07:00:52.701Z,99.99
2019-02-06T07:01:52.674Z,99.99
2019-02-06T07:02:52.648Z,99.99
2019-02-06T07:03:52.621Z,99.99
2019-02-06T07:04:52.593Z,99.99
2019-02-06T07:05:52.565Z,99.99
2019-02-06T07:06:52.539Z,99.99
2019-02-06T07:07:52.510Z,99.99
2019-02-06T07:08:52.484Z,99.99
2019-02-06T07:09:52.455Z,99.99
2019-02-06T07:10:52.496Z,99.99
2019-02-06T07:11:52.400Z,99.99
2019-02-06T07:12:52.384Z,99.99
2019-02-06T07:13:52.350Z,99.99
2019-02-06T07:14:52.320Z,99.99
2019-02-06T07:15:52.292Z,99.99
2019-02-06T07:16:52.265Z,99.99
2019-02-06T07:17:52.236Z,99.99
2019-02-06T07:18:52.212Z,99.99
2019-02-06T07:19:52.182Z,99.99
2019-02-06T07:20:52.156Z,99.99
2019-02-06T07:21:52.127Z,99.99
2019-02-06T07:22:52.101Z,99.99
2019-02-06T07:23:52.073Z,99.99
2019-02-06T07:24:52.045Z,99.99
2019-02-06T07:25:52.025Z,99.99
2019-02-06T07:26:51.998Z,99.99
2019-02-06T07:27:51.964Z,99.99
2019-02-06T07:28:51.947Z,99.99
2019-02-06T07:29:51.908Z,99.99
2019-02-06T07:30:51.897Z,99.99
2019-02-06T07:31:51.854Z,99.99
2019-02-06T07:32:51.825Z,99.99
2019-02-06T07:33:51.821Z,99.99
2019-02-06T07:34:51.778Z,99.99
2019-02-06T07:35:51.744Z,99.99
2019-02-06T07:36:51.718Z,99.99
2019-02-06T07:37:51.691Z,99.99
2019-02-06T07:38:51.661Z,99.99
2019-02-06T07:39:51.633Z,99.99
2019-02-06T07:40:51.612Z,99.99
2019-02-06T07:41:51.580Z,99.99
2019-02-06T07:42:51.551Z,99.99
2019-02-06T07:43:51.524Z,99.99
2019-02-06T07:44:51.499Z,99.99
2019-02-06T07:45:51.468Z,99.99
2019-02-06T07:46:51.440Z,99.99
2019-02-06T07:47:51.418Z,99.99
2019-02-06T07:48:51.386Z,99.99
2019-02-06T07:49:51.359Z,99.99
2019-02-06T07:50:51.334Z,99.99
2019-02-06T07:51:51.316Z,99.99
2019-02-06T07:52:51.278Z,99.99
2019-02-06T07:53:51.256Z,99.99
2019-02-06T07:54:51.222Z,99.99
2019-02-06T07:55:51.195Z,99.99
2019-02-06T07:56:51.175Z,99.99
2019-02-06T07:57:51.153Z,99.99
2019-02-06T07:58:51.115Z,99.99
2019-02-06T07:59:51.093Z,99.99
2019-02-06T08:00:51.060Z,99.99
2019-02-06T08:01:51.032Z,99.58
2019-02-06T08:02:51.005Z,99.99
2019-02-06T08:03:50.978Z,99.44
2019-02-06T08:04:50.950Z,99.96
2019-02-06T08:05:50.924Z,99.99
2019-02-06T08:06:50.896Z,99.99
2019-02-06T08:07:50.870Z,99.86
2019-02-06T08:08:50.841Z,99.63
2019-02-06T08:09:50.814Z,99.99
2019-02-06T08:10:50.789Z,99.99
2019-02-06T08:11:50.763Z,99.99
2019-02-06T08:12:50.740Z,99.99
2019-02-06T08:13:50.709Z,99.99
2019-02-06T08:14:50.678Z,99.72
2019-02-06T08:15:50.651Z,99.99
2019-02-06T08:16:50.630Z,99.99
2019-02-06T08:17:50.597Z,99.72
2019-02-06T08:18:50.570Z,99.44
2019-02-06T08:19:50.545Z,99.91
2019-02-06T08:20:50.516Z,99.99
2019-02-06T08:21:50.489Z,99.91
2019-02-06T08:22:50.462Z,99.91
2019-02-06T08:23:50.439Z,99.91
2019-02-06T08:24:50.407Z,99.82
2019-02-06T08:25:50.381Z,99.25
2019-02-06T08:26:50.356Z,99.15
2019-02-06T08:27:50.334Z,99.99
2019-02-06T08:28:50.300Z,99.82
2019-02-06T08:29:50.274Z,99.25
2019-02-06T08:30:50.246Z,99.72
2019-02-06T08:31:50.219Z,99.63
2019-02-06T08:32:50.193Z,99.44
2019-02-06T08:33:50.180Z,99.15
2019-02-06T08:34:50.138Z,99.34
2019-02-06T08:35:50.112Z,99.15
2019-02-06T08:36:50.085Z,99.06
2019-02-06T08:37:50.057Z,99.15
2019-02-06T08:38:50.268Z,98.96
2019-02-06T08:39:50.004Z,99.15
2019-02-06T08:40:49.978Z,99.53
2019-02-06T08:41:49.947Z,99.15
2019-02-06T08:42:49.924Z,98.87
2019-02-06T08:43:49.898Z,99.06
2019-02-06T08:44:49.888Z,99.15
2019-02-06T08:45:49.840Z,98.96
2019-02-06T08:46:49.817Z,99.06
2019-02-06T08:47:49.797Z,99.44
2019-02-06T08:48:49.761Z,99.06
2019-02-06T08:49:49.743Z,99.44
2019-02-06T08:50:49.712Z,99.25
2019-02-06T08:51:49.686Z,99.15
2019-02-06T08:52:49.654Z,98.39
2019-02-06T08:53:49.634Z,98.30
2019-02-06T08:54:49.601Z,98.68
2019-02-06T08:55:49.574Z,99.15
2019-02-06T08:56:49.550Z,98.68
2019-02-06T08:57:49.520Z,98.77
2019-02-06T08:58:49.493Z,99.15
2019-02-06T08:59:49.468Z,98.39
2019-02-06T09:00:49.441Z,98.30
2019-02-06T09:01:49.414Z,98.21
2019-02-06T09:02:49.388Z,98.58
2019-02-06T09:03:49.362Z,99.11
2019-02-06T09:04:55.906Z,98.25
2019-02-06T09:05:49.306Z,98.73
2019-02-06T09:06:49.284Z,98.63
2019-02-06T09:07:49.261Z,98.35
2019-02-06T09:08:59.277Z,98.44
2019-02-06T09:09:49.202Z,98.25
2019-02-06T09:10:49.176Z,98.54
2019-02-06T09:11:49.148Z,98.25
2019-02-06T09:12:49.124Z,98.54
2019-02-06T09:13:49.097Z,97.31
2019-02-06T09:14:49.068Z,97.88
2019-02-06T09:15:49.041Z,98.44
2019-02-06T09:16:49.017Z,97.69
2019-02-06T09:17:48.992Z,98.25
2019-02-06T09:18:48.994Z,98.35
2019-02-06T09:19:48.973Z,97.59
2019-02-06T09:20:48.909Z,97.50
2019-02-06T09:21:48.883Z,97.97
2019-02-06T09:22:48.857Z,97.69
2019-02-06T09:23:48.834Z,97.40
2019-02-06T09:24:48.815Z,97.40
2019-02-06T09:25:48.796Z,97.40
2019-02-06T09:26:48.751Z,97.97
2019-02-06T09:27:48.725Z,97.69
2019-02-06T09:28:48.702Z,97.88
2019-02-06T09:29:48.674Z,97.59
2019-02-06T09:30:48.648Z,97.59
2019-02-06T09:31:48.625Z,97.40
2019-02-06T09:32:48.601Z,97.12
2019-02-06T09:33:48.568Z,97.02
2019-02-06T09:34:48.545Z,97.40
2019-02-06T09:35:48.519Z,96.45
2019-02-06T09:36:48.491Z,96.88
2019-02-06T09:37:48.464Z,96.78
2019-02-06T09:38:48.437Z,97.31
2019-02-06T09:39:48.412Z,96.59
2019-02-06T09:40:49.531Z,96.78
2019-02-06T09:41:48.364Z,97.07
2019-02-06T09:42:48.426Z,97.36
2019-02-06T09:43:48.326Z,96.50
2019-02-06T09:44:48.289Z,96.78
2019-02-06T09:45:48.268Z,96.50
2019-02-06T09:46:48.233Z,96.41
2019-02-06T09:47:48.224Z,97.45
2019-02-06T09:48:48.182Z,96.59
2019-02-06T09:49:49.900Z,96.59
2019-02-06T09:50:48.134Z,96.69
2019-02-06T09:51:48.103Z,96.22
2019-02-06T09:52:48.078Z,96.59
2019-02-06T09:53:48.055Z,96.31
2019-02-06T09:54:48.027Z,95.93
2019-02-06T09:55:48.000Z,96.31
2019-02-06T09:56:50.623Z,96.50
2019-02-06T09:57:47.948Z,96.50
2019-02-06T09:58:47.921Z,96.41
2019-02-06T09:59:47.898Z,95.93
2019-02-06T10:00:47.874Z,95.93
2019-02-06T10:01:47.847Z,95.93
2019-02-06T10:02:47.823Z,96.97
2019-02-06T10:03:47.804Z,96.22
2019-02-06T10:04:47.770Z,96.03
2019-02-06T10:05:47.744Z,95.65
2019-02-06T10:06:47.723Z,95.93
2019-02-06T10:07:47.696Z,95.93
2019-02-06T10:08:47.672Z,95.93
2019-02-06T10:09:47.642Z,95.27
2019-02-06T10:10:47.617Z,95.55
2019-02-06T10:11:47.591Z,95.74
2019-02-06T10:12:47.571Z,95.74
2019-02-06T10:13:47.537Z,95.74
2019-02-06T10:14:47.513Z,95.74
2019-02-06T10:15:47.488Z,95.46
2019-02-06T10:16:47.507Z,95.84
2019-02-06T10:17:47.436Z,95.17
2019-02-06T10:18:47.413Z,95.55
2019-02-06T10:19:47.385Z,95.46
2019-02-06T10:20:47.360Z,95.07
2019-02-06T10:21:51.253Z,95.93
2019-02-06T10:22:47.311Z,95.36
2019-02-06T10:23:47.284Z,95.36
2019-02-06T10:24:47.261Z,95.27
2019-02-06T10:25:47.295Z,95.17
2019-02-06T10:26:47.209Z,95.84
2019-02-06T10:27:47.191Z,94.79
2019-02-06T10:28:47.160Z,94.79
2019-02-06T10:29:47.131Z,95.84
2019-02-06T10:30:47.105Z,95.36
2019-02-06T10:31:47.081Z,95.46
2019-02-06T10:32:47.055Z,94.60
2019-02-06T10:33:47.031Z,94.32
2019-02-06T10:34:47.005Z,94.60
2019-02-06T10:35:46.984Z,94.70
2019-02-06T10:36:46.953Z,95.12
2019-02-06T10:37:46.927Z,95.12
2019-02-06T10:38:46.902Z,94.84
2019-02-06T10:39:46.877Z,95.22
2019-02-06T10:40:46.911Z,94.46
2019-02-06T10:41:46.825Z,94.27
2019-02-06T10:42:46.802Z,94.37
2019-02-06T10:43:46.777Z,94.37
2019-02-06T10:44:46.749Z,93.89
2019-02-06T10:45:46.725Z,93.99
2019-02-06T10:46:46.697Z,93.70
2019-02-06T10:47:46.673Z,93.60
2019-02-06T10:48:46.649Z,93.80
2019-02-06T10:49:46.622Z,93.99
2019-02-06T10:50:46.596Z,93.99
2019-02-06T10:51:46.575Z,93.60
2019-02-06T10:52:48.387Z,93.51
2019-02-06T10:53:46.536Z,94.08
2019-02-06T10:54:46.497Z,93.51
2019-02-06T10:55:46.602Z,94.18
2019-02-06T10:56:46.446Z,94.18
2019-02-06T10:57:46.420Z,93.51
2019-02-06T10:58:46.394Z,93.60
2019-02-06T10:59:46.369Z,93.23
2019-02-06T11:00:46.345Z,93.70
2019-02-06T11:01:46.317Z,93.32
2019-02-06T11:02:46.295Z,93.80
2019-02-06T11:03:46.267Z,92.56
2019-02-06T11:04:46.243Z,92.85
2019-02-06T11:05:46.217Z,93.04
2019-02-06T11:06:46.196Z,92.94
2019-02-06T11:07:46.405Z,93.51
2019-02-06T11:08:46.140Z,93.04
2019-02-06T11:09:46.604Z,93.51
2019-02-06T11:10:46.096Z,93.13
2019-02-06T11:11:46.066Z,93.04
2019-02-06T11:12:46.039Z,92.85
2019-02-06T11:13:46.015Z,93.04
2019-02-06T11:14:45.988Z,92.56
2019-02-06T11:15:45.975Z,92.37
2019-02-06T11:16:45.938Z,92.94
2019-02-06T11:17:45.914Z,93.04
2019-02-06T11:18:45.893Z,92.32
2019-02-06T11:19:45.863Z,92.51
2019-02-06T11:20:45.838Z,91.61
2019-02-06T11:21:45.811Z,91.85
2019-02-06T11:22:45.787Z,91.94
2019-02-06T11:23:45.764Z,91.94
2019-02-06T11:24:45.738Z,92.51
2019-02-06T11:25:45.711Z,91.85
2019-02-06T11:26:45.687Z,91.28
2019-02-06T11:27:45.660Z,91.85
2019-02-06T11:28:45.636Z,91.75
2019-02-06T11:29:48.344Z,91.66
2019-02-06T11:30:45.589Z,91.66
2019-02-06T11:31:45.565Z,91.66
2019-02-06T11:32:45.535Z,91.85
2019-02-06T11:33:45.510Z,91.75
2019-02-06T11:34:45.505Z,92.42
2019-02-06T11:35:45.461Z,91.66
2019-02-06T11:36:45.435Z,91.38
2019-02-06T11:37:45.429Z,91.56
2019-02-06T11:38:45.388Z,90.61
2019-02-06T11:39:45.360Z,90.90
2019-02-06T11:40:45.336Z,90.61
2019-02-06T11:41:45.311Z,91.47
2019-02-06T11:42:45.287Z,90.99
2019-02-06T11:43:45.263Z,90.71
2019-02-06T11:44:45.236Z,90.80
2019-02-06T11:45:45.212Z,90.42
2019-02-06T11:46:45.186Z,90.33
2019-02-06T11:47:45.162Z,90.52
2019-02-06T11:48:45.137Z,90.99
2019-02-06T11:49:45.197Z,90.99
2019-02-06T11:50:45.087Z,90.99
2019-02-06T11:51:45.063Z,90.52
2019-02-06T11:52:45.037Z,90.33
2019-02-06T11:53:45.012Z,90.90
2019-02-06T11:54:44.987Z,90.71
2019-02-06T11:55:44.963Z,90.71
2019-02-06T11:56:44.937Z,90.71
2019-02-06T11:57:44.914Z,90.61
2019-02-06T11:58:44.888Z,90.71
2019-02-06T11:59:44.863Z,91.47
2019-02-06T12:00:44.840Z,91.66
2019-02-06T12:01:44.820Z,91.56
2019-02-06T12:02:44.789Z,90.90
2019-02-06T12:03:44.772Z,90.90
2019-02-06T12:04:44.741Z,90.71
2019-02-06T12:05:44.716Z,90.80
2019-02-06T12:06:44.690Z,90.80
2019-02-06T12:07:44.667Z,91.56
2019-02-06T12:08:44.641Z,91.56
2019-02-06T12:09:44.619Z,91.66
2019-02-06T12:10:44.590Z,91.66
2019-02-06T12:11:44.565Z,91.38
2019-02-06T12:12:44.542Z,91.75
2019-02-06T12:13:44.516Z,91.66
2019-02-06T12:14:44.491Z,91.66
2019-02-06T12:15:44.466Z,91.56
2019-02-06T12:16:44.443Z,92.04
2019-02-06T12:17:44.418Z,92.04
2019-02-06T12:18:44.391Z,91.85
2019-02-06T12:19:44.369Z,91.75
2019-02-06T12:20:44.342Z,91.85
2019-02-06T12:21:44.318Z,91.56
2019-02-06T12:22:44.295Z,91.75
2019-02-06T12:23:44.269Z,91.61
2019-02-06T12:24:44.244Z,91.56
2019-02-06T12:25:44.221Z,91.89
2019-02-06T12:26:44.193Z,92.51
2019-02-06T12:27:44.169Z,91.85
2019-02-06T12:28:44.145Z,92.08
2019-02-06T12:29:44.121Z,92.46
2019-02-06T12:30:44.139Z,93.13
2019-02-06T12:31:44.071Z,92.27
2019-02-06T12:32:51.939Z,92.46
2019-02-06T12:33:44.022Z,92.66
2019-02-06T12:34:43.997Z,92.56
2019-02-06T12:35:43.972Z,91.99
2019-02-06T12:36:43.948Z,92.75
2019-02-06T12:37:43.923Z,92.37
2019-02-06T12:38:53.181Z,92.66
2019-02-06T12:39:43.875Z,93.23
2019-02-06T12:40:43.850Z,92.85
2019-02-06T12:41:43.825Z,92.56
2019-02-06T12:42:43.801Z,92.56
2019-02-06T12:43:43.783Z,92.66
2019-02-06T12:44:43.755Z,92.94
2019-02-06T12:45:43.727Z,92.66
2019-02-06T12:46:43.703Z,92.85
2019-02-06T12:47:43.681Z,93.23
2019-02-06T12:48:43.663Z,93.04
2019-02-06T12:49:43.632Z,93.23
2019-02-06T12:50:43.605Z,93.13
2019-02-06T12:51:43.584Z,93.13